createdAt,value
2018-06-04T00:00:18.307Z,99.99
2018-06-04T00:01:18.323Z,99.99
2018-06-04T00:02:18.304Z,99.99
2018-06-04T00:03:18.337Z,99.99
2018-06-04T00:04:18.293Z,99.99
2018-06-04T00:05:18.293Z,99.99
2018-06-04T00:06:18.307Z,99.99
2018-06-04T00:07:18.284Z,99.99
2018-06-04T00:08:18.284Z,99.99
2018-06-04T00:09:18.280Z,99.99
2018-06-04T00:10:18.276Z,99.99
2018-06-04T00:11:18.273Z,99.99
2018-06-04T00:12:18.272Z,99.99
2018-06-04T00:13:18.271Z,99.99
2018-06-04T00:14:18.265Z,99.99
2018-06-04T00:15:18.263Z,99.99
2018-06-04T00:16:18.260Z,99.99
2018-06-04T00:17:18.259Z,99.99
2018-06-04T00:18:18.260Z,99.99
2018-06-04T00:19:18.256Z,99.99
2018-06-04T00:20:18.251Z,99.99
2018-06-04T00:21:18.248Z,99.99
2018-06-04T00:22:18.250Z,99.99
2018-06-04T00:23:18.246Z,99.99
2018-06-04T00:24:18.244Z,99.99
2018-06-04T00:25:18.240Z,99.99
2018-06-04T00:26:18.233Z,99.99
2018-06-04T00:27:18.230Z,99.99
2018-06-04T00:28:18.243Z,99.99
2018-06-04T00:29:18.249Z,99.99
2018-06-04T00:30:18.222Z,99.99
2018-06-04T00:31:18.221Z,99.99
2018-06-04T00:32:18.249Z,99.99
2018-06-04T00:33:18.214Z,99.99
2018-06-04T00:34:18.215Z,99.99
2018-06-04T00:35:18.210Z,99.99
2018-06-04T00:36:18.204Z,99.99
2018-06-04T00:37:18.205Z,99.99
2018-06-04T00:38:18.194Z,99.99
2018-06-04T00:39:18.196Z,99.99
2018-06-04T00:40:18.193Z,99.99
2018-06-04T00:41:18.192Z,99.99
2018-06-04T00:42:18.193Z,99.99
2018-06-04T00:43:18.193Z,99.99
2018-06-04T00:44:18.184Z,99.99
2018-06-04T00:45:18.183Z,99.99
2018-06-04T00:46:18.180Z,99.99
2018-06-04T00:47:18.173Z,99.99
2018-06-04T00:48:18.178Z,99.99
2018-06-04T00:49:18.180Z,99.99
2018-06-04T00:50:18.170Z,99.99
2018-06-04T00:51:18.166Z,99.99
2018-06-04T00:52:18.158Z,99.99
2018-06-04T00:53:18.161Z,99.99
2018-06-04T00:54:18.158Z,99.99
2018-06-04T00:55:18.153Z,99.99
2018-06-04T00:56:18.154Z,99.99
2018-06-04T00:57:18.152Z,99.99
2018-06-04T00:58:18.148Z,99.99
2018-06-04T00:59:18.143Z,99.99
2018-06-04T01:00:18.139Z,99.99
2018-06-04T01:01:18.141Z,99.99
2018-06-04T01:02:18.135Z,99.99
2018-06-04T01:03:18.135Z,99.99
2018-06-04T01:04:18.135Z,99.99
2018-06-04T01:05:18.128Z,99.99
2018-06-04T01:06:18.126Z,99.99
2018-06-04T01:07:18.125Z,99.99
2018-06-04T01:08:18.121Z,99.99
2018-06-04T01:09:18.116Z,99.99
2018-06-04T01:10:18.118Z,99.99
2018-06-04T01:11:18.110Z,99.99
2018-06-04T01:12:18.111Z,99.99
2018-06-04T01:13:18.110Z,99.99
2018-06-04T01:14:18.104Z,99.99
2018-06-04T01:15:18.102Z,99.99
2018-06-04T01:16:18.102Z,99.99
2018-06-04T01:17:18.095Z,99.99
2018-06-04T01:18:18.081Z,99.99
2018-06-04T01:19:18.088Z,99.99
2018-06-04T01:20:18.090Z,99.99
2018-06-04T01:21:18.084Z,99.99
2018-06-04T01:22:18.082Z,99.99
2018-06-04T01:23:18.082Z,99.99
2018-06-04T01:24:18.076Z,99.99
2018-06-04T01:25:18.076Z,99.99
2018-06-04T01:26:18.080Z,99.99
2018-06-04T01:27:18.065Z,99.99
2018-06-04T01:28:18.087Z,99.99
2018-06-04T01:29:18.061Z,99.99
2018-06-04T01:30:18.062Z,99.99
2018-06-04T02:03:08.389Z,99.99
2018-06-04T02:04:08.364Z,99.99
2018-06-04T02:06:01.382Z,99.99
2018-06-04T02:07:01.355Z,99.99
2018-06-04T02:08:54.245Z,99.99
2018-06-04T02:09:54.222Z,99.99
2018-06-04T02:11:47.129Z,99.99
2018-06-04T02:12:47.121Z,99.99
2018-06-04T02:14:40.110Z,99.99
2018-06-04T02:15:40.082Z,99.99
2018-06-04T02:17:33.012Z,99.99
2018-06-04T02:18:33.000Z,99.99
2018-06-04T02:20:25.918Z,99.99
2018-06-04T02:21:25.898Z,99.99
2018-06-04T02:23:18.875Z,99.99
2018-06-04T02:24:18.867Z,99.99
2018-06-04T02:25:18.863Z,99.99
2018-06-04T02:26:18.862Z,99.99
2018-06-04T02:27:18.866Z,99.99
2018-06-04T02:28:18.857Z,99.99
2018-06-04T02:29:18.857Z,99.99
2018-06-04T02:30:18.843Z,99.99
2018-06-04T02:31:18.887Z,99.99
2018-06-04T02:32:18.847Z,99.99
2018-06-04T02:33:18.860Z,99.99
2018-06-04T02:34:18.838Z,99.99
2018-06-04T02:35:18.863Z,99.99
2018-06-04T02:36:18.838Z,99.99
2018-06-04T02:37:18.822Z,99.99
2018-06-04T02:38:18.829Z,99.99
2018-06-04T02:39:18.825Z,99.99
2018-06-04T02:40:18.830Z,99.99
2018-06-04T02:41:18.826Z,99.99
2018-06-04T02:42:18.824Z,99.99
2018-06-04T02:43:18.811Z,99.99
2018-06-04T02:44:18.810Z,99.99
2018-06-04T02:45:18.808Z,99.99
2018-06-04T02:46:18.813Z,99.99
2018-06-04T02:47:18.802Z,99.99
2018-06-04T02:48:18.799Z,99.99
2018-06-04T02:49:18.796Z,99.99
2018-06-04T02:50:18.794Z,99.99
2018-06-04T02:51:18.795Z,99.99
2018-06-04T02:52:18.815Z,99.99
2018-06-04T02:53:18.781Z,99.99
2018-06-04T02:54:18.782Z,99.99
2018-06-04T02:55:18.784Z,99.99
2018-06-04T02:56:18.777Z,99.99
2018-06-04T02:57:18.773Z,99.99
2018-06-04T02:58:18.767Z,99.99
2018-06-04T02:59:18.764Z,99.99
2018-06-04T03:00:18.753Z,99.99
2018-06-04T03:01:18.759Z,99.99
2018-06-04T03:02:18.761Z,99.99
2018-06-04T03:03:18.756Z,99.99
2018-06-04T03:04:18.752Z,99.99
2018-06-04T03:05:18.752Z,99.99
2018-06-04T03:06:18.747Z,99.99
2018-06-04T03:07:18.741Z,99.99
2018-06-04T03:08:18.743Z,99.99
2018-06-04T03:09:18.735Z,99.99
2018-06-04T03:10:18.732Z,99.99
2018-06-04T03:11:18.732Z,99.99
2018-06-04T03:12:18.734Z,99.99
2018-06-04T03:13:18.722Z,99.99
2018-06-04T03:14:18.718Z,99.99
2018-06-04T03:15:18.722Z,99.99
2018-06-04T03:16:18.715Z,99.99
2018-06-04T03:17:18.711Z,99.99
2018-06-04T03:18:18.707Z,99.99
2018-06-04T03:19:18.706Z,99.99
2018-06-04T03:20:18.702Z,99.99
2018-06-04T03:21:18.697Z,99.99
2018-06-04T03:22:18.698Z,99.99
2018-06-04T03:23:18.699Z,99.99
2018-06-04T03:24:18.690Z,99.99
2018-06-04T03:25:18.687Z,99.99
2018-06-04T03:26:18.683Z,99.99
2018-06-04T03:27:18.684Z,99.99
2018-06-04T03:28:18.679Z,99.99
2018-06-04T03:29:18.677Z,99.99
2018-06-04T03:30:18.668Z,99.99
2018-06-04T03:31:18.669Z,99.99
2018-06-04T03:32:18.661Z,99.99
2018-06-04T03:33:18.664Z,99.99
2018-06-04T03:34:18.654Z,99.99
2018-06-04T03:35:18.654Z,99.99
2018-06-04T03:36:18.668Z,99.99
2018-06-04T03:37:18.649Z,99.99
2018-06-04T03:38:18.650Z,99.99
2018-06-04T03:39:18.642Z,99.99
2018-06-04T03:40:18.641Z,99.99
2018-06-04T03:41:18.634Z,99.99
2018-06-04T03:42:18.647Z,99.99
2018-06-04T03:43:18.632Z,99.99
2018-06-04T03:44:18.623Z,99.99
2018-06-04T03:45:18.622Z,99.99
2018-06-04T03:46:18.616Z,99.99
2018-06-04T03:47:18.620Z,99.99
2018-06-04T03:48:18.613Z,99.99
2018-06-04T03:49:18.611Z,99.99
2018-06-04T03:50:18.608Z,99.99
2018-06-04T03:51:18.601Z,99.99
2018-06-04T03:52:18.606Z,99.99
2018-06-04T03:53:18.601Z,99.99
2018-06-04T03:54:18.594Z,99.99
2018-06-04T03:55:18.608Z,99.99
2018-06-04T03:56:18.589Z,99.99
2018-06-04T03:57:18.594Z,99.99
2018-06-04T03:58:18.581Z,99.99
2018-06-04T03:59:18.583Z,99.99
2018-06-04T04:00:18.580Z,99.99
2018-06-04T04:01:18.572Z,99.99
2018-06-04T04:02:18.572Z,99.99
2018-06-04T04:03:18.570Z,99.99
2018-06-04T04:04:18.566Z,99.99
2018-06-04T04:05:18.561Z,99.99
2018-06-04T04:06:18.561Z,99.99
2018-06-04T04:07:18.554Z,99.99
2018-06-04T04:08:18.566Z,99.99
2018-06-04T04:09:18.556Z,99.99
2018-06-04T04:10:19.283Z,99.99
2018-06-04T04:11:18.545Z,99.99
2018-06-04T04:12:18.543Z,99.99
2018-06-04T04:13:18.540Z,99.99
2018-06-04T04:14:18.545Z,99.99
2018-06-04T04:15:18.533Z,99.99
2018-06-04T04:16:18.540Z,99.99
2018-06-04T04:17:18.529Z,99.99
2018-06-04T04:18:18.529Z,99.99
2018-06-04T04:19:18.561Z,99.99
2018-06-04T04:20:18.566Z,99.99
2018-06-04T04:21:18.515Z,99.99
2018-06-04T04:22:18.515Z,99.99
2018-06-04T04:23:18.516Z,99.99
2018-06-04T04:24:18.511Z,99.99
2018-06-04T04:25:18.515Z,99.99
2018-06-04T04:26:18.507Z,99.99
2018-06-04T04:27:18.503Z,99.99
2018-06-04T04:28:18.507Z,99.99
2018-06-04T04:29:18.489Z,99.99
2018-06-04T04:30:18.503Z,99.99
2018-06-04T04:31:18.494Z,99.99
2018-06-04T04:32:18.494Z,99.99
2018-06-04T04:33:18.490Z,99.99
2018-06-04T04:34:18.483Z,99.99
2018-06-04T04:35:18.492Z,99.99
2018-06-04T04:36:18.485Z,99.99
2018-06-04T04:37:18.482Z,99.99
2018-06-04T04:38:18.480Z,99.99
2018-06-04T04:39:18.481Z,99.99
2018-06-04T04:40:18.475Z,99.99
2018-06-04T04:41:18.475Z,99.99
2018-06-04T04:42:18.485Z,99.99
2018-06-04T04:43:18.468Z,99.99
2018-06-04T04:44:18.468Z,99.99
2018-06-04T04:45:18.471Z,99.99
2018-06-04T04:46:18.462Z,99.99
2018-06-04T04:47:18.461Z,99.99
2018-06-04T04:48:18.467Z,99.99
2018-06-04T04:49:18.458Z,99.99
2018-06-04T04:50:18.472Z,99.99
2018-06-04T04:51:18.457Z,99.99
2018-06-04T04:52:18.456Z,99.99
2018-06-04T04:53:18.451Z,99.99
2018-06-04T04:54:18.453Z,99.99
2018-06-04T04:55:18.453Z,99.99
2018-06-04T04:56:18.450Z,99.99
2018-06-04T04:57:18.434Z,99.99
2018-06-04T04:58:18.444Z,99.99
2018-06-04T04:59:18.449Z,99.99
2018-06-04T05:00:18.440Z,99.99
2018-06-04T05:01:18.444Z,99.99
2018-06-04T05:02:18.459Z,99.99
2018-06-04T05:03:18.450Z,99.99
2018-06-04T05:04:18.435Z,99.99
2018-06-04T05:05:18.439Z,99.99
2018-06-04T05:06:18.453Z,99.99
2018-06-04T05:07:18.435Z,99.99
2018-06-04T05:08:18.500Z,99.99
2018-06-04T05:09:18.434Z,99.99
2018-06-04T05:10:18.421Z,99.99
2018-06-04T05:11:18.424Z,99.99
2018-06-04T05:12:18.425Z,99.99
2018-06-04T05:13:18.424Z,99.99
2018-06-04T05:14:18.438Z,99.99
2018-06-04T05:15:18.431Z,99.99
2018-06-04T05:16:18.453Z,99.99
2018-06-04T05:17:18.419Z,99.99
2018-06-04T05:18:18.430Z,99.99
2018-06-04T05:19:18.421Z,99.99
2018-06-04T05:20:18.426Z,99.99
2018-06-04T05:21:18.417Z,99.99
2018-06-04T05:22:18.421Z,99.99
2018-06-04T05:23:18.417Z,99.99
2018-06-04T05:24:18.420Z,99.99
2018-06-04T05:25:18.416Z,99.99
2018-06-04T05:26:18.414Z,99.99
2018-06-04T05:27:18.418Z,99.99
2018-06-04T05:28:18.415Z,99.99
2018-06-04T05:29:18.415Z,99.99
2018-06-04T05:30:18.412Z,99.99
2018-06-04T05:31:18.461Z,99.99
2018-06-04T05:32:18.410Z,99.99
2018-06-04T05:33:18.417Z,99.99
2018-06-04T05:34:18.410Z,99.99
2018-06-04T05:35:18.407Z,99.99
2018-06-04T05:36:18.411Z,99.99
2018-06-04T05:37:18.412Z,99.99
2018-06-04T05:38:18.407Z,99.99
2018-06-04T05:39:18.411Z,99.99
2018-06-04T05:40:18.404Z,99.99
2018-06-04T05:41:18.405Z,99.99
2018-06-04T05:42:18.407Z,99.99
2018-06-04T05:43:18.410Z,99.99
2018-06-04T05:44:18.408Z,99.99
2018-06-04T05:45:18.410Z,99.99
2018-06-04T05:46:18.407Z,99.99
2018-06-04T05:47:18.407Z,99.99
2018-06-04T05:48:18.409Z,99.99
2018-06-04T05:49:18.412Z,99.99
2018-06-04T05:50:18.399Z,99.99
2018-06-04T05:51:18.409Z,99.99
2018-06-04T05:52:18.411Z,99.99
2018-06-04T05:53:18.410Z,99.99
2018-06-04T05:54:18.410Z,99.99
2018-06-04T05:55:18.415Z,99.99
2018-06-04T05:56:18.472Z,99.99
2018-06-04T05:57:18.410Z,99.99
2018-06-04T05:58:18.415Z,99.99
2018-06-04T05:59:18.410Z,99.99
2018-06-04T06:00:18.405Z,99.99
2018-06-04T06:01:18.419Z,99.99
2018-06-04T06:02:18.416Z,99.99
2018-06-04T06:03:18.420Z,99.99
2018-06-04T06:04:18.427Z,99.99
2018-06-04T06:05:18.420Z,99.99
2018-06-04T06:06:18.422Z,99.99
2018-06-04T06:07:18.425Z,99.99
2018-06-04T06:08:18.426Z,99.99
2018-06-04T06:09:18.420Z,99.99
2018-06-04T06:10:18.425Z,99.99
2018-06-04T06:11:18.428Z,99.64
2018-06-04T06:12:18.440Z,99.99
2018-06-04T06:13:18.433Z,99.99
2018-06-04T06:14:18.462Z,99.74
2018-06-04T06:15:18.434Z,99.99
2018-06-04T06:16:18.440Z,99.55
2018-06-04T06:17:18.436Z,99.99
2018-06-04T06:18:18.439Z,99.11
2018-06-04T06:19:18.436Z,96.32
2018-06-04T06:20:18.433Z,94.87
2018-06-04T06:21:18.449Z,92.36
2018-06-04T06:22:18.446Z,91.64
2018-06-04T06:23:18.446Z,93.23
2018-06-04T06:24:18.443Z,94.78
2018-06-04T06:25:18.446Z,91.60
2018-06-04T06:26:18.448Z,92.99
2018-06-04T06:27:18.537Z,98.78
2018-06-04T06:28:18.451Z,96.56
2018-06-04T06:29:18.451Z,96.12
2018-06-04T06:30:18.459Z,97.86
2018-06-04T06:31:18.457Z,92.02
2018-06-04T06:32:18.459Z,87.53
2018-06-04T06:33:18.461Z,86.38
2018-06-04T06:34:18.463Z,84.97
2018-06-04T06:35:18.475Z,86.90
2018-06-04T06:36:18.467Z,85.16
2018-06-04T06:37:18.508Z,85.16
2018-06-04T06:38:18.469Z,87.00
2018-06-04T06:39:18.473Z,81.44
2018-06-04T06:40:18.495Z,83.62
2018-06-04T06:41:18.477Z,83.75
2018-06-04T06:42:18.506Z,80.12
2018-06-04T06:43:18.480Z,78.73
2018-06-04T06:44:18.484Z,79.74
2018-06-04T06:45:18.487Z,78.42
2018-06-04T06:46:18.489Z,78.36
2018-06-04T06:47:18.493Z,75.98
2018-06-04T06:48:18.489Z,76.95
2018-06-04T06:49:18.501Z,75.27
2018-06-04T06:50:18.497Z,74.36
2018-06-04T06:51:18.504Z,74.49
2018-06-04T06:52:18.519Z,75.21
2018-06-04T06:53:18.508Z,76.24
2018-06-04T06:54:18.509Z,82.48
2018-06-04T06:55:18.507Z,77.30
2018-06-04T06:56:18.513Z,76.86
2018-06-04T06:57:18.542Z,77.14
2018-06-04T06:58:18.527Z,80.79
2018-06-04T06:59:18.524Z,78.67
2018-06-04T07:00:18.528Z,77.07
2018-06-04T07:01:18.532Z,76.08
2018-06-04T07:02:18.538Z,73.05
2018-06-04T07:03:18.540Z,73.73
2018-06-04T07:04:18.544Z,74.32
2018-06-04T07:05:18.550Z,74.96
2018-06-04T07:06:18.557Z,74.26
2018-06-04T07:07:18.562Z,73.32
2018-06-04T07:08:18.565Z,72.41
2018-06-04T07:09:18.581Z,73.19
2018-06-04T07:10:18.581Z,71.44
2018-06-04T07:11:18.590Z,71.77
2018-06-04T07:12:18.596Z,73.64
2018-06-04T07:13:18.602Z,73.28
2018-06-04T07:14:18.673Z,71.09
2018-06-04T07:15:18.621Z,68.87
2018-06-04T07:16:18.627Z,68.41
2018-06-04T07:17:18.663Z,70.73
2018-06-04T07:18:18.655Z,69.22
2018-06-04T07:19:18.661Z,67.57
2018-06-04T07:20:18.673Z,66.44
2018-06-04T07:21:18.682Z,67.54
2018-06-04T07:22:18.693Z,69.44
2018-06-04T07:23:18.703Z,71.15
2018-06-04T07:24:18.800Z,71.67
2018-06-04T07:25:18.719Z,70.73
2018-06-04T07:26:18.743Z,70.06
2018-06-04T07:27:18.755Z,67.02
2018-06-04T07:28:18.776Z,68.40
2018-06-04T07:29:18.772Z,69.93
2018-06-04T07:30:18.792Z,66.72
2018-06-04T07:31:18.799Z,65.30
2018-06-04T07:32:18.817Z,63.75
2018-06-04T07:33:18.829Z,62.64
2018-06-04T07:34:18.849Z,64.43
2018-06-04T07:35:18.856Z,66.44
2018-06-04T07:36:18.874Z,66.17
2018-06-04T07:37:18.881Z,63.84
2018-06-04T07:38:18.897Z,60.82
2018-06-04T07:39:18.903Z,59.22
2018-06-04T07:40:18.910Z,57.62
2018-06-04T07:41:18.974Z,56.54
2018-06-04T07:42:18.947Z,57.85
2018-06-04T07:43:18.968Z,58.25
2018-06-04T07:44:19.022Z,57.39
2018-06-04T07:45:18.996Z,55.69
2018-06-04T07:46:19.012Z,54.44
2018-06-04T07:47:19.021Z,53.42
2018-06-04T07:48:19.063Z,52.40
2018-06-04T07:49:19.061Z,51.05
2018-06-04T07:50:19.063Z,50.34
2018-06-04T07:51:19.081Z,49.80
2018-06-04T07:52:19.099Z,49.58
2018-06-04T07:53:19.111Z,53.76
2018-06-04T07:54:19.131Z,53.74
2018-06-04T07:55:19.149Z,53.05
2018-06-04T07:56:19.158Z,53.20
2018-06-04T07:57:19.237Z,53.49
2018-06-04T07:58:19.188Z,56.27
2018-06-04T07:59:19.215Z,56.48
2018-06-04T08:00:19.227Z,59.91
2018-06-04T08:01:19.241Z,60.56
2018-06-04T08:02:19.258Z,61.51
2018-06-04T08:03:19.272Z,62.51
2018-06-04T08:04:19.305Z,61.96
2018-06-04T08:05:19.304Z,60.63
2018-06-04T08:06:19.402Z,60.30
2018-06-04T08:07:19.346Z,59.94
2018-06-04T08:08:19.357Z,60.36
2018-06-04T08:09:19.379Z,61.54
2018-06-04T08:10:19.406Z,60.42
2018-06-04T08:11:19.408Z,59.74
2018-06-04T08:12:19.427Z,56.56
2018-06-04T08:13:19.438Z,56.48
2018-06-04T08:14:19.462Z,57.17
2018-06-04T08:15:19.473Z,55.05
2018-06-04T08:16:19.492Z,55.30
2018-06-04T08:17:19.507Z,54.88
2018-06-04T08:18:19.528Z,54.75
2018-06-04T08:19:19.548Z,55.42
2018-06-04T08:20:19.572Z,53.35
2018-06-04T08:21:19.598Z,51.73
2018-06-04T08:22:19.596Z,53.09
2018-06-04T08:23:19.615Z,54.17
2018-06-04T08:24:19.636Z,53.97
2018-06-04T08:25:19.648Z,52.73
2018-06-04T08:26:19.668Z,54.21
2018-06-04T08:27:19.685Z,55.73
2018-06-04T08:28:19.704Z,55.34
2018-06-04T08:29:19.801Z,56.05
2018-06-04T08:30:19.739Z,53.86
2018-06-04T08:31:19.758Z,55.16
2018-06-04T08:32:19.777Z,55.63
2018-06-04T08:33:19.811Z,55.34
2018-06-04T08:34:19.801Z,56.12
2018-06-04T08:35:19.832Z,56.90
2018-06-04T08:36:19.844Z,55.34
2018-06-04T08:37:19.864Z,56.97
2018-06-04T08:38:19.880Z,58.24
2018-06-04T08:39:19.896Z,58.17
2018-06-04T08:40:19.950Z,58.89
2018-06-04T08:41:19.926Z,58.15
2018-06-04T08:42:19.943Z,58.38
2018-06-04T08:43:19.960Z,61.37
2018-06-04T08:44:19.966Z,59.45
2018-06-04T08:45:19.990Z,58.60
2018-06-04T08:46:20.010Z,55.57
2018-06-04T08:47:20.022Z,58.34
2018-06-04T08:48:20.035Z,58.66
2018-06-04T08:49:20.049Z,58.53
2018-06-04T08:50:20.068Z,58.49
2018-06-04T08:51:20.086Z,59.91
2018-06-04T08:52:20.100Z,57.85
2018-06-04T08:53:20.113Z,56.84
2018-06-04T08:54:20.140Z,55.81
2018-06-04T08:55:20.142Z,54.03
2018-06-04T08:56:20.238Z,51.90
2018-06-04T08:57:20.175Z,50.78
2018-06-04T08:58:20.207Z,55.03
2018-06-04T08:59:20.210Z,53.25
2018-06-04T09:00:20.228Z,52.08
2018-06-04T09:01:20.245Z,50.44
2018-06-04T09:02:20.265Z,52.30
2018-06-04T09:03:20.282Z,50.20
2018-06-04T09:04:20.301Z,49.29
2018-06-04T09:05:20.321Z,49.41
2018-06-04T09:06:20.349Z,49.08
2018-06-04T09:07:20.359Z,48.67
2018-06-04T09:08:20.381Z,48.35
2018-06-04T09:09:20.398Z,48.19
2018-06-04T09:10:20.425Z,46.75
2018-06-04T09:11:20.448Z,49.23
2018-06-04T09:12:20.473Z,46.19
2018-06-04T09:13:20.495Z,46.03
2018-06-04T09:14:20.510Z,46.31
2018-06-04T09:15:20.532Z,47.47
2018-06-04T09:16:20.554Z,47.22
2018-06-04T09:17:20.587Z,48.21
2018-06-04T09:18:20.599Z,50.29
2018-06-04T09:19:20.621Z,52.15
2018-06-04T09:20:20.646Z,51.76
2018-06-04T09:21:20.683Z,51.29
2018-06-04T09:22:20.687Z,52.44
2018-06-04T09:23:20.709Z,54.13
2018-06-04T09:24:20.728Z,53.81
2018-06-04T09:25:20.756Z,56.43
2018-06-04T09:26:20.772Z,54.70
2018-06-04T09:27:20.791Z,56.72
2018-06-04T09:28:20.814Z,58.15
2018-06-04T09:29:20.835Z,58.45
2018-06-04T09:30:20.852Z,56.00
2018-06-04T09:31:20.871Z,57.26
2018-06-04T09:32:20.956Z,57.35
2018-06-04T09:33:20.910Z,60.17
2018-06-04T09:34:20.936Z,59.84
2018-06-04T09:35:20.950Z,57.01
2018-06-04T09:36:20.969Z,58.40
2018-06-04T09:37:20.995Z,56.96
2018-06-04T09:38:21.008Z,60.05
2018-06-04T09:39:21.028Z,60.63
2018-06-04T09:40:21.059Z,60.49
2018-06-04T09:41:21.068Z,59.52
2018-06-04T09:42:21.076Z,60.59
2018-06-04T09:43:21.102Z,62.96
2018-06-04T09:44:21.123Z,58.37
2018-06-04T09:45:21.149Z,56.74
2018-06-04T09:46:21.163Z,58.17
2018-06-04T09:47:21.178Z,54.98
2018-06-04T09:48:21.197Z,56.60
2018-06-04T09:49:21.213Z,52.08
2018-06-04T09:50:21.227Z,53.13
2018-06-04T09:51:21.258Z,54.99
2018-06-04T09:52:21.265Z,57.04
2018-06-04T09:53:21.288Z,61.00
2018-06-04T09:54:21.309Z,58.53
2018-06-04T09:55:21.327Z,57.75
2018-06-04T09:56:21.345Z,59.33
2018-06-04T09:57:21.360Z,58.49
2018-06-04T09:58:21.385Z,61.51
2018-06-04T09:59:21.399Z,62.51
2018-06-04T10:00:21.426Z,60.91
2018-06-04T10:01:21.438Z,60.00
2018-06-04T10:02:21.452Z,62.73
2018-06-04T10:03:21.476Z,60.85
2018-06-04T10:04:21.493Z,58.66
2018-06-04T10:05:21.512Z,57.56
2018-06-04T10:06:21.531Z,56.75
2018-06-04T10:07:21.549Z,57.65
2018-06-04T10:08:21.563Z,56.25
2018-06-04T10:09:21.579Z,55.59
2018-06-04T10:10:21.601Z,57.00
2018-06-04T10:11:21.620Z,54.30
2018-06-04T10:12:21.639Z,55.48
2018-06-04T10:13:21.653Z,57.09
2018-06-04T10:14:21.682Z,61.15
2018-06-04T10:15:21.697Z,61.14
2018-06-04T10:16:21.711Z,59.78
2018-06-04T10:17:21.730Z,59.64
2018-06-04T10:18:21.749Z,56.56
2018-06-04T10:19:21.767Z,55.54
2018-06-04T10:20:21.787Z,60.06
2018-06-04T10:21:21.805Z,60.33
2018-06-04T10:22:21.827Z,59.69
2018-06-04T10:23:21.841Z,60.34
2018-06-04T10:24:21.858Z,61.47
2018-06-04T10:25:21.879Z,62.22
2018-06-04T10:26:21.891Z,60.49
2018-06-04T10:27:21.910Z,60.72
2018-06-04T10:28:21.930Z,60.24
2018-06-04T10:29:21.949Z,61.11
2018-06-04T10:30:21.965Z,60.85
2018-06-04T10:31:21.982Z,59.45
2018-06-04T10:32:22.010Z,61.11
2018-06-04T10:33:22.023Z,61.07
2018-06-04T10:34:22.043Z,56.97
2018-06-04T10:35:22.061Z,58.66
2018-06-04T10:36:22.070Z,58.31
2018-06-04T10:37:22.092Z,59.31
2018-06-04T10:38:22.105Z,57.98
2018-06-04T10:39:22.121Z,56.90
2018-06-04T10:40:22.144Z,56.82
2018-06-04T10:41:22.156Z,57.26
2018-06-04T10:42:22.176Z,58.84
2018-06-04T10:43:22.188Z,59.74
2018-06-04T10:44:22.214Z,60.03
2018-06-04T10:45:22.232Z,58.58
2018-06-04T10:46:22.247Z,58.77
2018-06-04T10:47:22.262Z,58.22
2018-06-04T10:48:22.282Z,57.70
2018-06-04T10:49:22.298Z,58.40
2018-06-04T10:50:22.316Z,58.80
2018-06-04T10:51:22.335Z,58.58
2018-06-04T10:52:22.353Z,58.70
2018-06-04T10:53:22.367Z,58.48
2018-06-04T10:54:22.387Z,59.74
2018-06-04T10:55:22.406Z,60.00
2018-06-04T10:56:22.418Z,58.67
2018-06-04T10:57:22.449Z,58.76
2018-06-04T10:58:22.455Z,56.51
2018-06-04T10:59:22.471Z,57.39
2018-06-04T11:00:22.531Z,56.62
2018-06-04T11:01:22.513Z,59.59
2018-06-04T11:02:22.524Z,59.13
2018-06-04T11:03:22.540Z,60.72
2018-06-04T11:04:22.556Z,60.72
2018-06-04T11:05:22.577Z,57.01
2018-06-04T11:06:22.595Z,56.58
2018-06-04T11:07:22.612Z,54.60
2018-06-04T11:08:22.626Z,55.22
2018-06-04T11:09:22.648Z,55.26
2018-06-04T11:10:22.664Z,58.06
2018-06-04T11:11:22.683Z,57.18
2018-06-04T11:12:22.699Z,58.22
2018-06-04T11:13:22.710Z,58.06
2018-06-04T11:14:22.723Z,57.99
2018-06-04T11:15:22.753Z,54.82
2018-06-04T11:16:22.766Z,56.27
2018-06-04T11:17:22.784Z,58.15
2018-06-04T11:18:22.793Z,56.50
2018-06-04T11:19:22.819Z,57.11
2018-06-04T11:20:22.848Z,57.24
2018-06-04T11:21:22.866Z,58.58
2018-06-04T11:22:22.869Z,56.56
2018-06-04T11:23:22.889Z,55.68
2018-06-04T11:24:22.915Z,57.79
2018-06-04T11:25:22.952Z,58.89
2018-06-04T11:26:22.936Z,58.97
2018-06-04T11:27:22.970Z,55.51
2018-06-04T11:28:22.976Z,55.93
2018-06-04T11:29:22.983Z,58.30
2018-06-04T11:30:23.030Z,56.15
2018-06-04T11:31:23.038Z,56.12
2018-06-04T11:32:23.040Z,55.88
2018-06-04T11:33:23.055Z,56.82
2018-06-04T11:34:23.062Z,54.83
2018-06-04T11:35:23.088Z,55.12
2018-06-04T11:36:23.108Z,55.16
2018-06-04T11:37:23.144Z,56.30
2018-06-04T11:38:23.145Z,58.50
2018-06-04T11:39:23.158Z,59.86
2018-06-04T11:40:23.177Z,58.10
2018-06-04T11:41:23.206Z,61.21
2018-06-04T11:42:23.203Z,61.37
2018-06-04T11:43:23.222Z,58.92
2018-06-04T11:44:23.243Z,58.89
2018-06-04T11:45:23.806Z,55.86
2018-06-04T11:46:23.381Z,52.56
2018-06-04T11:47:23.285Z,54.28
2018-06-04T11:48:23.307Z,55.65
2018-06-04T11:49:23.317Z,55.72
2018-06-04T11:50:23.339Z,56.52
2018-06-04T11:51:23.356Z,53.83
2018-06-04T11:52:23.371Z,53.88
2018-06-04T11:53:23.394Z,53.03
2018-06-04T11:54:23.395Z,52.85
2018-06-04T11:55:23.414Z,53.73
2018-06-04T11:56:23.483Z,54.44
2018-06-04T11:57:23.455Z,53.27
2018-06-04T11:58:23.465Z,53.05
2018-06-04T11:59:23.502Z,53.24
2018-06-04T12:00:23.502Z,54.21
2018-06-04T12:01:23.513Z,54.02
2018-06-04T12:02:23.548Z,52.46
2018-06-04T12:03:23.560Z,52.24
2018-06-04T12:04:23.563Z,54.09
2018-06-04T12:05:23.631Z,54.24
2018-06-04T12:06:23.602Z,51.61
2018-06-04T12:07:23.606Z,51.04
2018-06-04T12:08:23.628Z,50.78
2018-06-04T12:09:23.647Z,53.14
2018-06-04T12:10:23.659Z,52.26
2018-06-04T12:11:23.693Z,53.85
2018-06-04T12:12:23.687Z,53.14
2018-06-04T12:13:23.702Z,51.75
2018-06-04T12:14:23.731Z,51.75
2018-06-04T12:15:23.779Z,52.38
2018-06-04T12:16:23.753Z,53.21
2018-06-04T12:17:23.771Z,52.48
2018-06-04T12:18:23.789Z,50.73
2018-06-04T12:19:23.806Z,50.60
2018-06-04T12:20:23.829Z,53.83
2018-06-04T12:21:23.840Z,52.22
2018-06-04T12:22:23.854Z,52.22
2018-06-04T12:23:23.876Z,51.56
2018-06-04T12:24:23.888Z,53.11
2018-06-04T12:25:23.902Z,53.65
2018-06-04T12:26:23.921Z,52.99
2018-06-04T12:27:23.932Z,52.99
2018-06-04T12:28:23.949Z,53.87
2018-06-04T12:29:23.967Z,53.36
2018-06-04T12:30:23.981Z,53.20
2018-06-04T12:31:23.997Z,54.93
2018-06-04T12:32:24.014Z,54.64
2018-06-04T12:33:24.031Z,55.19
2018-06-04T12:34:24.042Z,56.26
2018-06-04T12:35:24.052Z,56.43
2018-06-04T12:36:24.276Z,58.40
2018-06-04T12:37:24.084Z,56.92
2018-06-04T12:38:24.104Z,57.50
2018-06-04T12:39:24.113Z,57.14
2018-06-04T12:40:24.125Z,55.46
2018-06-04T12:41:24.131Z,55.94
2018-06-04T12:42:24.139Z,56.72
2018-06-04T12:43:24.160Z,57.69
2018-06-04T12:44:24.168Z,57.50
2018-06-04T12:45:24.185Z,58.37
2018-06-04T12:46:24.190Z,57.31
2018-06-04T12:47:24.195Z,57.01
2018-06-04T12:48:24.203Z,58.01
2018-06-04T12:49:24.211Z,60.15
2018-06-04T12:50:24.224Z,57.50
2018-06-04T12:51:24.237Z,57.82
2018-06-04T12:52:24.244Z,61.41
2018-06-04T12:53:24.243Z,60.74
2018-06-04T12:54:24.256Z,60.35
2018-06-04T12:55:24.256Z,58.76
2018-06-04T12:56:24.268Z,58.54
2018-06-04T12:57:24.270Z,58.64
2018-06-04T12:58:24.280Z,59.70
2018-06-04T12:59:24.286Z,59.74
2018-06-04T13:00:24.293Z,58.86
2018-06-04T13:01:24.294Z,59.86
2018-06-04T13:02:24.304Z,61.00
2018-06-04T13:03:24.309Z,60.90
2018-06-04T13:04:24.347Z,60.31
2018-06-04T13:05:24.318Z,59.05
2018-06-04T13:06:24.320Z,57.18
2018-06-04T13:07:24.332Z,57.96
2018-06-04T13:08:24.325Z,58.47
2018-06-04T13:09:24.339Z,58.73
2018-06-04T13:10:24.383Z,60.97
2018-06-04T13:11:24.349Z,60.22
2018-06-04T13:12:24.357Z,59.34
2018-06-04T13:13:24.351Z,58.08
2018-06-04T13:14:24.360Z,59.44
2018-06-04T13:15:24.365Z,58.15
2018-06-04T13:16:24.391Z,59.15
2018-06-04T13:17:24.376Z,58.15
2018-06-04T13:18:24.374Z,57.69
2018-06-04T13:19:24.385Z,57.31
2018-06-04T13:20:24.389Z,55.92
2018-06-04T13:21:24.393Z,56.70
2018-06-04T13:22:24.400Z,57.28
2018-06-04T13:23:24.403Z,55.53
2018-06-04T13:24:24.464Z,57.28
2018-06-04T13:25:24.435Z,56.79
2018-06-04T13:26:24.418Z,57.73
2018-06-04T13:27:24.430Z,57.06
2018-06-04T13:28:24.422Z,56.76
2018-06-04T13:29:24.427Z,57.37
2018-06-04T13:30:24.428Z,56.70